logo
Search for airport 
image banner adimage banner adimage banner ad
image banner ad

YBRA - Benambra Airport

Located in Benambra, Australia

ICAO - YBRA, IATA -

Data provided by Airmate  

General information

Coordinates: S36°58'4" E147°41'50"
Elevation is 2200 feet MSL.
Magnetic variation is 12° East
View others Airports in (unassigned)

Operational data

Special qualification required
Current time UTC:
Current local time:
Weather at : - ( 0 km )
METAR: ZMCK 191530Z 10004MPS 9999 FEW033 SCT100 06/M06 Q1006 NOSIG RMK QFE640.3 42 NT
View NOTAMs / SUP AIP / TFR affecting this airport [VIEW]
Communications frequencies: [VIEW]

Runways:

RWY identifierQFULength (ft)Width (ft)SurfaceLDA (ft)
14148°390521DIRT
32328°390521DIRT

Airport contact information

Address: Benambra Australia

Satellite view of YBRA